sensor_id;sensor_type;location;lat;lon;timestamp;temperature;humidity
10692;DHT22;5396;50.950;6.988;2023-03-31T00:00:19;12.20;99.90
10692;DHT22;5396;50.950;6.988;2023-03-31T00:02:44;12.20;99.90
10692;DHT22;5396;50.950;6.988;2023-03-31T00:05:10;12.20;99.90
10692;DHT22;5396;50.950;6.988;2023-03-31T00:07:36;12.20;99.90
10692;DHT22;5396;50.950;6.988;2023-03-31T00:10:05;12.20;99.90
10692;DHT22;5396;50.950;6.988;2023-03-31T00:12:32;12.10;99.90
10692;DHT22;5396;50.950;6.988;2023-03-31T00:14:57;12.10;99.90
10692;DHT22;5396;50.950;6.988;2023-03-31T00:17:23;12.00;99.90
10692;DHT22;5396;50.950;6.988;2023-03-31T00:19:48;11.90;99.90
10692;DHT22;5396;50.950;6.988;2023-03-31T00:22:15;11.80;99.90
10692;DHT22;5396;50.950;6.988;2023-03-31T00:24:47;11.70;99.90
10692;DHT22;5396;50.950;6.988;2023-03-31T00:27:12;11.50;99.90
10692;DHT22;5396;50.950;6.988;2023-03-31T00:29:38;11.50;99.90
10692;DHT22;5396;50.950;6.988;2023-03-31T00:32:07;11.40;99.90
10692;DHT22;5396;50.950;6.988;2023-03-31T00:34:32;11.40;99.90
10692;DHT22;5396;50.950;6.988;2023-03-31T00:36:59;11.50;99.90
10692;DHT22;5396;50.950;6.988;2023-03-31T00:39:27;11.50;99.90
10692;DHT22;5396;50.950;6.988;2023-03-31T00:42:01;11.40;99.90
10692;DHT22;5396;50.950;6.988;2023-03-31T00:44:28;11.40;99.90
10692;DHT22;5396;50.950;6.988;2023-03-31T00:47:03;11.30;99.90
10692;DHT22;5396;50.950;6.988;2023-03-31T00:49:35;11.30;99.90
10692;DHT22;5396;50.950;6.988;2023-03-31T00:52:21;11.20;99.90
10692;DHT22;5396;50.950;6.988;2023-03-31T00:54:52;11.30;99.90
10692;DHT22;5396;50.950;6.988;2023-03-31T00:57:21;11.20;99.90
10692;DHT22;5396;50.950;6.988;2023-03-31T01:00:00;11.20;99.90
10692;DHT22;5396;50.950;6.988;2023-03-31T01:02:27;11.20;99.90
10692;DHT22;5396;50.950;6.988;2023-03-31T01:04:58;11.10;99.90
10692;DHT22;5396;50.950;6.988;2023-03-31T01:09:59;11.20;99.90
10692;DHT22;5396;50.950;6.988;2023-03-31T01:12:26;11.10;99.90
10692;DHT22;5396;50.950;6.988;2023-03-31T01:14:52;11.20;99.90
10692;DHT22;5396;50.950;6.988;2023-03-31T01:17:20;11.10;99.90
10692;DHT22;5396;50.950;6.988;2023-03-31T01:22:50;11.10;99.90
10692;DHT22;5396;50.950;6.988;2023-03-31T01:25:44;11.10;99.90
10692;DHT22;5396;50.950;6.988;2023-03-31T01:28:36;11.00;99.90
10692;DHT22;5396;50.950;6.988;2023-03-31T01:45:47;11.10;99.90
10692;DHT22;5396;50.950;6.988;2023-03-31T01:48:18;11.10;99.90
10692;DHT22;5396;50.950;6.988;2023-03-31T01:51:16;11.20;99.90
10692;DHT22;5396;50.950;6.988;2023-03-31T01:53:53;11.20;99.90
10692;DHT22;5396;50.950;6.988;2023-03-31T01:56:33;11.10;99.90
10692;DHT22;5396;50.950;6.988;2023-03-31T01:59:21;11.10;99.90
10692;DHT22;5396;50.950;6.988;2023-03-31T02:01:56;11.10;99.90
10692;DHT22;5396;50.950;6.988;2023-03-31T02:04:46;11.10;99.90
10692;DHT22;5396;50.950;6.988;2023-03-31T02:07:23;11.20;99.90
10692;DHT22;5396;50.950;6.988;2023-03-31T02:09:55;11.20;99.90
10692;DHT22;5396;50.950;6.988;2023-03-31T02:12:25;11.20;99.90
10692;DHT22;5396;50.950;6.988;2023-03-31T02:14:53;11.30;99.90
10692;DHT22;5396;50.950;6.988;2023-03-31T02:17:23;11.30;99.90
10692;DHT22;5396;50.950;6.988;2023-03-31T02:19:57;11.30;99.90
10692;DHT22;5396;50.950;6.988;2023-03-31T02:22:25;11.30;99.90
10692;DHT22;5396;50.950;6.988;2023-03-31T02:24:52;11.30;99.90
10692;DHT22;5396;50.950;6.988;2023-03-31T02:27:25;11.20;99.90
10692;DHT22;5396;50.950;6.988;2023-03-31T02:29:53;11.20;99.90
10692;DHT22;5396;50.950;6.988;2023-03-31T02:34:53;11.10;99.90
10692;DHT22;5396;50.950;6.988;2023-03-31T02:37:19;11.10;99.90
10692;DHT22;5396;50.950;6.988;2023-03-31T02:39:47;11.00;99.90
10692;DHT22;5396;50.950;6.988;2023-03-31T02:42:13;11.00;99.90
10692;DHT22;5396;50.950;6.988;2023-03-31T02:44:39;11.00;99.90
10692;DHT22;5396;50.950;6.988;2023-03-31T02:47:11;11.00;99.90
10692;DHT22;5396;50.950;6.988;2023-03-31T02:49:42;10.90;99.90
10692;DHT22;5396;50.950;6.988;2023-03-31T03:00:39;10.90;99.90
10692;DHT22;5396;50.950;6.988;2023-03-31T03:06:38;10.80;99.90
10692;DHT22;5396;50.950;6.988;2023-03-31T03:12:21;10.80;99.90
10692;DHT22;5396;50.950;6.988;2023-03-31T03:14:54;10.80;99.90
10692;DHT22;5396;50.950;6.988;2023-03-31T03:17:28;10.70;99.90
10692;DHT22;5396;50.950;6.988;2023-03-31T03:19:59;10.70;99.90
10692;DHT22;5396;50.950;6.988;2023-03-31T03:22:25;10.70;99.90
10692;DHT22;5396;50.950;6.988;2023-03-31T03:24:51;10.70;99.90
10692;DHT22;5396;50.950;6.988;2023-03-31T03:27:18;10.70;99.90
10692;DHT22;5396;50.950;6.988;2023-03-31T03:29:46;10.80;99.90
10692;DHT22;5396;50.950;6.988;2023-03-31T03:32:12;10.80;99.90
10692;DHT22;5396;50.950;6.988;2023-03-31T03:34:38;10.80;99.90
10692;DHT22;5396;50.950;6.988;2023-03-31T03:37:03;10.80;99.90
10692;DHT22;5396;50.950;6.988;2023-03-31T03:39:30;10.80;99.90
10692;DHT22;5396;50.950;6.988;2023-03-31T03:41:55;10.90;99.90
10692;DHT22;5396;50.950;6.988;2023-03-31T03:44:21;10.90;99.90
10692;DHT22;5396;50.950;6.988;2023-03-31T03:46:46;10.80;99.90
10692;DHT22;5396;50.950;6.988;2023-03-31T03:49:15;10.80;99.90
10692;DHT22;5396;50.950;6.988;2023-03-31T03:51:40;10.80;99.90
10692;DHT22;5396;50.950;6.988;2023-03-31T03:54:06;10.80;99.90
10692;DHT22;5396;50.950;6.988;2023-03-31T03:56:32;10.90;99.90
10692;DHT22;5396;50.950;6.988;2023-03-31T03:58:57;10.80;99.90
10692;DHT22;5396;50.950;6.988;2023-03-31T04:01:23;10.80;99.90
10692;DHT22;5396;50.950;6.988;2023-03-31T04:03:49;10.80;99.90
10692;DHT22;5396;50.950;6.988;2023-03-31T04:06:14;10.90;99.90
10692;DHT22;5396;50.950;6.988;2023-03-31T04:08:40;10.90;99.90
10692;DHT22;5396;50.950;6.988;2023-03-31T04:11:15;10.90;99.90
10692;DHT22;5396;50.950;6.988;2023-03-31T04:13:42;10.90;99.90
10692;DHT22;5396;50.950;6.988;2023-03-31T04:16:08;11.00;99.90
10692;DHT22;5396;50.950;6.988;2023-03-31T04:18:34;11.00;99.90
10692;DHT22;5396;50.950;6.988;2023-03-31T04:21:02;10.90;99.90
10692;DHT22;5396;50.950;6.988;2023-03-31T04:23:34;10.90;99.90
10692;DHT22;5396;50.950;6.988;2023-03-31T04:26:03;10.90;99.90
10692;DHT22;5396;50.950;6.988;2023-03-31T04:28:36;10.90;99.90
10692;DHT22;5396;50.950;6.988;2023-03-31T04:31:04;10.90;99.90
10692;DHT22;5396;50.950;6.988;2023-03-31T04:33:32;10.90;99.90
10692;DHT22;5396;50.950;6.988;2023-03-31T04:36:05;10.90;99.90
10692;DHT22;5396;50.950;6.988;2023-03-31T04:38:45;10.90;99.90
10692;DHT22;5396;50.950;6.988;2023-03-31T04:41:14;10.80;99.90
10692;DHT22;5396;50.950;6.988;2023-03-31T04:43:40;10.80;99.90
10692;DHT22;5396;50.950;6.988;2023-03-31T04:46:06;10.80;99.90
10692;DHT22;5396;50.950;6.988;2023-03-31T04:48:31;10.80;99.90
10692;DHT22;5396;50.950;6.988;2023-03-31T04:50:57;10.80;99.90
10692;DHT22;5396;50.950;6.988;2023-03-31T04:53:23;10.80;99.90
10692;DHT22;5396;50.950;6.988;2023-03-31T04:55:49;10.70;99.90
10692;DHT22;5396;50.950;6.988;2023-03-31T04:58:15;10.70;99.90
10692;DHT22;5396;50.950;6.988;2023-03-31T05:00:40;10.70;99.90
10692;DHT22;5396;50.950;6.988;2023-03-31T05:03:06;10.70;99.90
10692;DHT22;5396;50.950;6.988;2023-03-31T05:05:32;10.70;99.90
10692;DHT22;5396;50.950;6.988;2023-03-31T05:07:58;10.60;99.90
10692;DHT22;5396;50.950;6.988;2023-03-31T05:10:24;10.60;99.90
10692;DHT22;5396;50.950;6.988;2023-03-31T05:12:49;10.70;99.90
10692;DHT22;5396;50.950;6.988;2023-03-31T05:15:15;10.80;99.90
10692;DHT22;5396;50.950;6.988;2023-03-31T05:17:41;10.80;99.90
10692;DHT22;5396;50.950;6.988;2023-03-31T05:20:08;10.80;99.90
10692;DHT22;5396;50.950;6.988;2023-03-31T05:22:38;10.80;99.90
10692;DHT22;5396;50.950;6.988;2023-03-31T05:25:05;10.80;99.90
10692;DHT22;5396;50.950;6.988;2023-03-31T05:27:31;10.80;99.90
10692;DHT22;5396;50.950;6.988;2023-03-31T05:29:57;10.80;99.90
10692;DHT22;5396;50.950;6.988;2023-03-31T05:32:24;10.80;99.90
10692;DHT22;5396;50.950;6.988;2023-03-31T05:34:50;10.90;99.90
10692;DHT22;5396;50.950;6.988;2023-03-31T05:37:19;10.90;99.90
10692;DHT22;5396;50.950;6.988;2023-03-31T05:39:48;10.90;99.90
10692;DHT22;5396;50.950;6.988;2023-03-31T05:42:14;10.90;99.90
10692;DHT22;5396;50.950;6.988;2023-03-31T05:44:39;11.00;99.90
10692;DHT22;5396;50.950;6.988;2023-03-31T05:47:05;11.00;99.90
10692;DHT22;5396;50.950;6.988;2023-03-31T05:49:30;11.00;99.90
10692;DHT22;5396;50.950;6.988;2023-03-31T05:51:56;11.00;99.90
10692;DHT22;5396;50.950;6.988;2023-03-31T05:54:22;11.00;99.90
10692;DHT22;5396;50.950;6.988;2023-03-31T05:56:47;11.00;99.90
10692;DHT22;5396;50.950;6.988;2023-03-31T05:59:13;11.00;99.90
10692;DHT22;5396;50.950;6.988;2023-03-31T06:01:39;11.00;99.90
10692;DHT22;5396;50.950;6.988;2023-03-31T06:04:05;11.00;99.90
10692;DHT22;5396;50.950;6.988;2023-03-31T06:06:33;10.90;99.90
10692;DHT22;5396;50.950;6.988;2023-03-31T06:08:59;10.90;99.90
10692;DHT22;5396;50.950;6.988;2023-03-31T06:11:25;11.00;99.90
10692;DHT22;5396;50.950;6.988;2023-03-31T06:13:51;10.90;99.90
10692;DHT22;5396;50.950;6.988;2023-03-31T06:16:17;10.90;99.90
10692;DHT22;5396;50.950;6.988;2023-03-31T06:18:43;11.00;99.90
10692;DHT22;5396;50.950;6.988;2023-03-31T06:21:14;11.00;99.90
10692;DHT22;5396;50.950;6.988;2023-03-31T06:23:41;11.20;99.90
10692;DHT22;5396;50.950;6.988;2023-03-31T06:26:11;11.30;99.90
10692;DHT22;5396;50.950;6.988;2023-03-31T06:28:37;11.40;99.90
10692;DHT22;5396;50.950;6.988;2023-03-31T06:31:06;11.50;99.90
10692;DHT22;5396;50.950;6.988;2023-03-31T06:33:32;11.50;99.90
10692;DHT22;5396;50.950;6.988;2023-03-31T06:35:58;11.50;99.90
10692;DHT22;5396;50.950;6.988;2023-03-31T06:38:26;11.40;99.90
10692;DHT22;5396;50.950;6.988;2023-03-31T06:40:52;11.30;99.90
10692;DHT22;5396;50.950;6.988;2023-03-31T06:43:17;11.20;99.90
10692;DHT22;5396;50.950;6.988;2023-03-31T06:45:43;11.10;99.90
10692;DHT22;5396;50.950;6.988;2023-03-31T06:48:08;11.10;99.90
10692;DHT22;5396;50.950;6.988;2023-03-31T06:50:37;11.10;99.90
10692;DHT22;5396;50.950;6.988;2023-03-31T06:53:03;11.10;99.90
10692;DHT22;5396;50.950;6.988;2023-03-31T06:55:31;11.20;99.90
10692;DHT22;5396;50.950;6.988;2023-03-31T06:57:58;11.30;99.90
10692;DHT22;5396;50.950;6.988;2023-03-31T07:00:24;11.40;99.90
10692;DHT22;5396;50.950;6.988;2023-03-31T07:02:51;11.50;99.90
10692;DHT22;5396;50.950;6.988;2023-03-31T07:05:17;11.60;99.90
10692;DHT22;5396;50.950;6.988;2023-03-31T07:07:44;11.60;99.90
10692;DHT22;5396;50.950;6.988;2023-03-31T07:10:10;11.70;99.90
10692;DHT22;5396;50.950;6.988;2023-03-31T07:12:35;11.80;99.90
10692;DHT22;5396;50.950;6.988;2023-03-31T07:15:01;11.90;99.90
10692;DHT22;5396;50.950;6.988;2023-03-31T07:17:27;12.00;99.90
10692;DHT22;5396;50.950;6.988;2023-03-31T07:19:53;12.00;99.90
10692;DHT22;5396;50.950;6.988;2023-03-31T07:22:18;12.10;99.90
10692;DHT22;5396;50.950;6.988;2023-03-31T07:24:44;12.10;99.90
10692;DHT22;5396;50.950;6.988;2023-03-31T07:27:09;12.20;99.90
10692;DHT22;5396;50.950;6.988;2023-03-31T07:29:35;12.20;99.90
10692;DHT22;5396;50.950;6.988;2023-03-31T07:32:00;12.20;99.90
10692;DHT22;5396;50.950;6.988;2023-03-31T07:34:26;12.20;99.90
10692;DHT22;5396;50.950;6.988;2023-03-31T07:36:54;12.20;99.90
10692;DHT22;5396;50.950;6.988;2023-03-31T07:39:20;12.20;99.90
10692;DHT22;5396;50.950;6.988;2023-03-31T07:41:46;12.20;99.90
10692;DHT22;5396;50.950;6.988;2023-03-31T07:44:12;12.30;99.90
10692;DHT22;5396;50.950;6.988;2023-03-31T07:46:38;12.40;99.90
10692;DHT22;5396;50.950;6.988;2023-03-31T07:49:04;12.50;99.90
10692;DHT22;5396;50.950;6.988;2023-03-31T07:51:31;12.60;99.90
10692;DHT22;5396;50.950;6.988;2023-03-31T07:53:57;12.60;99.90
10692;DHT22;5396;50.950;6.988;2023-03-31T07:56:23;12.70;99.90
10692;DHT22;5396;50.950;6.988;2023-03-31T07:58:50;12.70;99.90
10692;DHT22;5396;50.950;6.988;2023-03-31T08:01:19;12.80;99.90
10692;DHT22;5396;50.950;6.988;2023-03-31T08:03:45;12.90;99.90
10692;DHT22;5396;50.950;6.988;2023-03-31T08:06:16;13.00;99.90
10692;DHT22;5396;50.950;6.988;2023-03-31T08:08:41;13.10;99.90
10692;DHT22;5396;50.950;6.988;2023-03-31T08:11:08;13.20;99.90
10692;DHT22;5396;50.950;6.988;2023-03-31T08:13:34;13.10;99.90
10692;DHT22;5396;50.950;6.988;2023-03-31T08:16:00;13.10;99.90
10692;DHT22;5396;50.950;6.988;2023-03-31T08:18:28;13.20;99.90
10692;DHT22;5396;50.950;6.988;2023-03-31T08:20:54;13.30;99.90
10692;DHT22;5396;50.950;6.988;2023-03-31T08:23:19;13.30;99.90
10692;DHT22;5396;50.950;6.988;2023-03-31T08:25:45;13.30;99.90
10692;DHT22;5396;50.950;6.988;2023-03-31T08:28:11;13.30;99.90
10692;DHT22;5396;50.950;6.988;2023-03-31T08:30:41;13.40;99.90
10692;DHT22;5396;50.950;6.988;2023-03-31T08:33:07;13.50;99.90
10692;DHT22;5396;50.950;6.988;2023-03-31T08:35:34;13.60;99.90
10692;DHT22;5396;50.950;6.988;2023-03-31T08:38:00;13.80;99.90
10692;DHT22;5396;50.950;6.988;2023-03-31T08:40:30;13.80;99.90
10692;DHT22;5396;50.950;6.988;2023-03-31T08:43:01;13.90;99.90
10692;DHT22;5396;50.950;6.988;2023-03-31T08:45:38;13.90;99.90
10692;DHT22;5396;50.950;6.988;2023-03-31T08:48:21;13.90;99.90
10692;DHT22;5396;50.950;6.988;2023-03-31T08:50:53;14.00;99.90
10692;DHT22;5396;50.950;6.988;2023-03-31T08:53:49;14.20;99.90
10692;DHT22;5396;50.950;6.988;2023-03-31T08:56:19;14.10;99.90
10692;DHT22;5396;50.950;6.988;2023-03-31T08:58:48;14.00;99.90
10692;DHT22;5396;50.950;6.988;2023-03-31T09:01:31;14.00;99.90
10692;DHT22;5396;50.950;6.988;2023-03-31T09:04:17;14.10;99.90
10692;DHT22;5396;50.950;6.988;2023-03-31T09:12:24;14.50;99.90
10692;DHT22;5396;50.950;6.988;2023-03-31T09:15:09;14.60;99.90
10692;DHT22;5396;50.950;6.988;2023-03-31T09:17:41;14.70;99.90
10692;DHT22;5396;50.950;6.988;2023-03-31T09:20:35;14.80;99.90
10692;DHT22;5396;50.950;6.988;2023-03-31T09:23:26;14.90;99.90
10692;DHT22;5396;50.950;6.988;2023-03-31T09:25:55;15.10;99.90
10692;DHT22;5396;50.950;6.988;2023-03-31T09:28:47;15.20;99.90
10692;DHT22;5396;50.950;6.988;2023-03-31T09:31:16;15.40;99.90
10692;DHT22;5396;50.950;6.988;2023-03-31T09:33:46;15.40;99.90
10692;DHT22;5396;50.950;6.988;2023-03-31T09:36:17;15.40;99.90
10692;DHT22;5396;50.950;6.988;2023-03-31T09:38:50;15.40;99.90
10692;DHT22;5396;50.950;6.988;2023-03-31T09:41:16;15.60;99.90
10692;DHT22;5396;50.950;6.988;2023-03-31T09:43:43;15.60;99.90
10692;DHT22;5396;50.950;6.988;2023-03-31T09:46:32;15.40;99.90
10692;DHT22;5396;50.950;6.988;2023-03-31T09:49:20;14.90;99.90
10692;DHT22;5396;50.950;6.988;2023-03-31T09:51:48;14.50;99.90
10692;DHT22;5396;50.950;6.988;2023-03-31T09:54:33;14.30;99.90
10692;DHT22;5396;50.950;6.988;2023-03-31T09:56:59;14.20;99.90
10692;DHT22;5396;50.950;6.988;2023-03-31T09:59:34;14.20;99.90
10692;DHT22;5396;50.950;6.988;2023-03-31T10:02:23;14.30;99.90
10692;DHT22;5396;50.950;6.988;2023-03-31T10:04:50;14.50;99.90
10692;DHT22;5396;50.950;6.988;2023-03-31T10:07:20;14.90;99.90
10692;DHT22;5396;50.950;6.988;2023-03-31T10:09:47;15.10;99.90
10692;DHT22;5396;50.950;6.988;2023-03-31T10:12:19;15.10;99.90
10692;DHT22;5396;50.950;6.988;2023-03-31T10:14:50;15.00;99.90
10692;DHT22;5396;50.950;6.988;2023-03-31T10:17:19;15.00;99.90
10692;DHT22;5396;50.950;6.988;2023-03-31T10:19:49;15.10;99.90
10692;DHT22;5396;50.950;6.988;2023-03-31T10:22:27;15.20;99.90
10692;DHT22;5396;50.950;6.988;2023-03-31T10:24:53;15.30;99.90
10692;DHT22;5396;50.950;6.988;2023-03-31T10:27:27;15.40;99.90
10692;DHT22;5396;50.950;6.988;2023-03-31T10:29:56;15.30;99.90
10692;DHT22;5396;50.950;6.988;2023-03-31T10:32:29;15.30;99.90
10692;DHT22;5396;50.950;6.988;2023-03-31T10:35:04;15.40;99.90
10692;DHT22;5396;50.950;6.988;2023-03-31T10:37:30;15.40;99.90
10692;DHT22;5396;50.950;6.988;2023-03-31T10:40:04;15.30;99.90
10692;DHT22;5396;50.950;6.988;2023-03-31T10:42:37;15.40;99.90
10692;DHT22;5396;50.950;6.988;2023-03-31T10:45:24;15.60;99.90
10692;DHT22;5396;50.950;6.988;2023-03-31T10:47:53;15.70;99.90
10692;DHT22;5396;50.950;6.988;2023-03-31T10:50:32;15.80;99.90
10692;DHT22;5396;50.950;6.988;2023-03-31T10:53:09;15.80;99.90
10692;DHT22;5396;50.950;6.988;2023-03-31T10:58:29;15.70;99.90
10692;DHT22;5396;50.950;6.988;2023-03-31T11:03:49;15.60;99.90
10692;DHT22;5396;50.950;6.988;2023-03-31T11:14:30;16.00;99.90
10692;DHT22;5396;50.950;6.988;2023-03-31T11:44:11;15.00;99.90
10692;DHT22;5396;50.950;6.988;2023-03-31T11:46:53;15.10;99.90
10692;DHT22;5396;50.950;6.988;2023-03-31T11:49:44;15.10;99.90
10692;DHT22;5396;50.950;6.988;2023-03-31T11:52:29;15.20;99.90
10692;DHT22;5396;50.950;6.988;2023-03-31T11:55:11;15.20;99.90
10692;DHT22;5396;50.950;6.988;2023-03-31T11:58:01;15.40;99.90
10692;DHT22;5396;50.950;6.988;2023-03-31T12:00:47;15.30;99.90
10692;DHT22;5396;50.950;6.988;2023-03-31T12:06:00;15.30;99.90
10692;DHT22;5396;50.950;6.988;2023-03-31T12:08:36;15.10;99.90
10692;DHT22;5396;50.950;6.988;2023-03-31T12:11:18;15.10;99.90
10692;DHT22;5396;50.950;6.988;2023-03-31T12:16:23;14.70;99.90
10692;DHT22;5396;50.950;6.988;2023-03-31T12:21:18;14.40;99.90
10692;DHT22;5396;50.950;6.988;2023-03-31T12:23:45;14.50;99.90
10692;DHT22;5396;50.950;6.988;2023-03-31T12:29:29;15.10;99.90
10692;DHT22;5396;50.950;6.988;2023-03-31T12:32:00;15.50;99.90
10692;DHT22;5396;50.950;6.988;2023-03-31T12:34:28;15.70;99.90
10692;DHT22;5396;50.950;6.988;2023-03-31T12:39:58;15.50;99.90
10692;DHT22;5396;50.950;6.988;2023-03-31T12:45:27;15.50;99.90
10692;DHT22;5396;50.950;6.988;2023-03-31T12:49:03;15.50;99.90
10692;DHT22;5396;50.950;6.988;2023-03-31T12:51:02;15.50;99.90
10692;DHT22;5396;50.950;6.988;2023-03-31T12:53:38;15.60;99.90
10692;DHT22;5396;50.950;6.988;2023-03-31T12:56:09;15.60;99.90
10692;DHT22;5396;50.950;6.988;2023-03-31T12:58:36;15.70;99.90
10692;DHT22;5396;50.950;6.988;2023-03-31T13:01:22;15.70;99.90
10692;DHT22;5396;50.950;6.988;2023-03-31T13:09:02;14.90;99.90
10692;DHT22;5396;50.950;6.988;2023-03-31T13:16:38;13.80;99.90
10692;DHT22;5396;50.950;6.988;2023-03-31T13:19:05;13.80;99.90
10692;DHT22;5396;50.950;6.988;2023-03-31T13:21:30;13.90;99.90
10692;DHT22;5396;50.950;6.988;2023-03-31T13:24:05;13.90;99.90
10692;DHT22;5396;50.950;6.988;2023-03-31T13:26:35;14.00;99.90
10692;DHT22;5396;50.950;6.988;2023-03-31T13:29:24;14.20;99.90
10692;DHT22;5396;50.950;6.988;2023-03-31T13:34:48;14.80;99.90
10692;DHT22;5396;50.950;6.988;2023-03-31T13:37:41;15.20;99.90
10692;DHT22;5396;50.950;6.988;2023-03-31T13:40:25;15.30;99.90
10692;DHT22;5396;50.950;6.988;2023-03-31T13:43:18;15.30;99.90
10692;DHT22;5396;50.950;6.988;2023-03-31T13:57:52;15.50;99.90
10692;DHT22;5396;50.950;6.988;2023-03-31T14:05:41;15.70;99.90
10692;DHT22;5396;50.950;6.988;2023-03-31T14:10:44;16.30;99.90
10692;DHT22;5396;50.950;6.988;2023-03-31T14:13:12;16.40;99.90
10692;DHT22;5396;50.950;6.988;2023-03-31T14:15:56;16.50;99.90
10692;DHT22;5396;50.950;6.988;2023-03-31T14:18:31;16.40;99.90
10692;DHT22;5396;50.950;6.988;2023-03-31T14:21:45;16.10;99.90
10692;DHT22;5396;50.950;6.988;2023-03-31T14:27:16;15.70;99.90
10692;DHT22;5396;50.950;6.988;2023-03-31T14:32:39;15.50;99.90
10692;DHT22;5396;50.950;6.988;2023-03-31T14:35:32;15.50;99.90
10692;DHT22;5396;50.950;6.988;2023-03-31T14:38:05;15.60;99.90
10692;DHT22;5396;50.950;6.988;2023-03-31T14:40:36;15.60;99.90
10692;DHT22;5396;50.950;6.988;2023-03-31T14:43:16;15.60;99.90
10692;DHT22;5396;50.950;6.988;2023-03-31T14:45:42;15.50;99.90
10692;DHT22;5396;50.950;6.988;2023-03-31T14:48:13;15.50;99.90
10692;DHT22;5396;50.950;6.988;2023-03-31T14:50:45;15.60;99.90
10692;DHT22;5396;50.950;6.988;2023-03-31T14:53:15;15.50;99.90
10692;DHT22;5396;50.950;6.988;2023-03-31T14:55:41;15.50;99.90
10692;DHT22;5396;50.950;6.988;2023-03-31T14:58:09;15.40;99.90
10692;DHT22;5396;50.950;6.988;2023-03-31T15:00:40;15.40;99.90
10692;DHT22;5396;50.950;6.988;2023-03-31T15:03:09;15.40;99.90
10692;DHT22;5396;50.950;6.988;2023-03-31T15:05:40;15.40;99.90
10692;DHT22;5396;50.950;6.988;2023-03-31T15:08:12;15.40;99.90
10692;DHT22;5396;50.950;6.988;2023-03-31T15:10:44;15.40;99.90
10692;DHT22;5396;50.950;6.988;2023-03-31T15:13:34;15.30;99.90
10692;DHT22;5396;50.950;6.988;2023-03-31T15:16:30;15.20;99.90
10692;DHT22;5396;50.950;6.988;2023-03-31T15:18:58;15.20;99.90
10692;DHT22;5396;50.950;6.988;2023-03-31T15:21:26;15.10;99.90
10692;DHT22;5396;50.950;6.988;2023-03-31T15:23:55;15.10;99.90
10692;DHT22;5396;50.950;6.988;2023-03-31T15:26:26;15.10;99.90
10692;DHT22;5396;50.950;6.988;2023-03-31T15:28:59;15.10;99.90
10692;DHT22;5396;50.950;6.988;2023-03-31T15:31:26;15.10;99.90
10692;DHT22;5396;50.950;6.988;2023-03-31T15:33:52;15.00;99.90
10692;DHT22;5396;50.950;6.988;2023-03-31T15:36:19;15.00;99.90
10692;DHT22;5396;50.950;6.988;2023-03-31T15:38:45;15.00;99.90
10692;DHT22;5396;50.950;6.988;2023-03-31T15:41:13;14.90;99.90
10692;DHT22;5396;50.950;6.988;2023-03-31T15:46:10;14.60;99.90
10692;DHT22;5396;50.950;6.988;2023-03-31T15:48:47;14.40;99.90
10692;DHT22;5396;50.950;6.988;2023-03-31T15:53:44;14.00;99.90
10692;DHT22;5396;50.950;6.988;2023-03-31T15:56:29;13.40;99.90
10692;DHT22;5396;50.950;6.988;2023-03-31T15:58:56;12.80;99.90
10692;DHT22;5396;50.950;6.988;2023-03-31T16:01:26;12.30;99.90
10692;DHT22;5396;50.950;6.988;2023-03-31T16:03:53;12.10;99.90
10692;DHT22;5396;50.950;6.988;2023-03-31T16:08:57;11.90;99.90
10692;DHT22;5396;50.950;6.988;2023-03-31T16:11:48;11.90;99.90
10692;DHT22;5396;50.950;6.988;2023-03-31T16:16:49;12.20;99.90
10692;DHT22;5396;50.950;6.988;2023-03-31T16:19:18;12.30;99.90
10692;DHT22;5396;50.950;6.988;2023-03-31T16:21:48;12.30;99.90
10692;DHT22;5396;50.950;6.988;2023-03-31T16:24:18;12.30;99.90
10692;DHT22;5396;50.950;6.988;2023-03-31T16:26:44;12.30;99.90
10692;DHT22;5396;50.950;6.988;2023-03-31T16:29:19;12.10;99.90
10692;DHT22;5396;50.950;6.988;2023-03-31T16:31:45;11.80;99.90
10692;DHT22;5396;50.950;6.988;2023-03-31T16:34:11;11.70;99.90
10692;DHT22;5396;50.950;6.988;2023-03-31T16:36:37;11.60;99.90
10692;DHT22;5396;50.950;6.988;2023-03-31T16:39:04;11.60;99.90
10692;DHT22;5396;50.950;6.988;2023-03-31T16:41:31;11.60;99.90
10692;DHT22;5396;50.950;6.988;2023-03-31T16:43:57;11.60;99.90
10692;DHT22;5396;50.950;6.988;2023-03-31T16:46:23;11.80;99.90
10692;DHT22;5396;50.950;6.988;2023-03-31T16:48:50;11.90;99.90
10692;DHT22;5396;50.950;6.988;2023-03-31T16:51:15;12.00;99.90
10692;DHT22;5396;50.950;6.988;2023-03-31T16:53:42;12.10;99.90
10692;DHT22;5396;50.950;6.988;2023-03-31T16:56:08;12.10;99.90
10692;DHT22;5396;50.950;6.988;2023-03-31T16:58:37;12.20;99.90
10692;DHT22;5396;50.950;6.988;2023-03-31T17:01:04;12.30;99.90
10692;DHT22;5396;50.950;6.988;2023-03-31T17:03:31;12.40;99.90
10692;DHT22;5396;50.950;6.988;2023-03-31T17:05:57;12.40;99.90
10692;DHT22;5396;50.950;6.988;2023-03-31T17:08:25;12.40;99.90
10692;DHT22;5396;50.950;6.988;2023-03-31T17:13:17;12.60;99.90
10692;DHT22;5396;50.950;6.988;2023-03-31T17:15:43;12.70;99.90
10692;DHT22;5396;50.950;6.988;2023-03-31T17:18:08;12.70;99.90
10692;DHT22;5396;50.950;6.988;2023-03-31T17:20:34;12.70;99.90
10692;DHT22;5396;50.950;6.988;2023-03-31T17:23:00;12.80;99.90
10692;DHT22;5396;50.950;6.988;2023-03-31T17:25:25;12.80;99.90
10692;DHT22;5396;50.950;6.988;2023-03-31T17:27:51;12.80;99.90
10692;DHT22;5396;50.950;6.988;2023-03-31T17:30:17;12.80;99.90
10692;DHT22;5396;50.950;6.988;2023-03-31T17:32:43;12.80;99.90
10692;DHT22;5396;50.950;6.988;2023-03-31T17:35:09;12.90;99.90
10692;DHT22;5396;50.950;6.988;2023-03-31T17:37:36;12.90;99.90
10692;DHT22;5396;50.950;6.988;2023-03-31T17:40:02;12.90;99.90
10692;DHT22;5396;50.950;6.988;2023-03-31T17:42:29;12.90;99.90
10692;DHT22;5396;50.950;6.988;2023-03-31T17:44:55;12.90;99.90
10692;DHT22;5396;50.950;6.988;2023-03-31T17:47:23;12.90;99.90
10692;DHT22;5396;50.950;6.988;2023-03-31T17:49:48;12.90;99.90
10692;DHT22;5396;50.950;6.988;2023-03-31T17:52:14;12.90;99.90
10692;DHT22;5396;50.950;6.988;2023-03-31T17:54:40;12.90;99.90
10692;DHT22;5396;50.950;6.988;2023-03-31T17:57:06;12.90;99.90
10692;DHT22;5396;50.950;6.988;2023-03-31T17:59:32;12.90;99.90
10692;DHT22;5396;50.950;6.988;2023-03-31T18:01:58;12.90;99.90
10692;DHT22;5396;50.950;6.988;2023-03-31T18:04:25;12.90;99.90
10692;DHT22;5396;50.950;6.988;2023-03-31T18:06:51;12.90;99.90
10692;DHT22;5396;50.950;6.988;2023-03-31T18:09:17;12.90;99.90
10692;DHT22;5396;50.950;6.988;2023-03-31T18:11:42;12.90;99.90
10692;DHT22;5396;50.950;6.988;2023-03-31T18:14:08;12.90;99.90
10692;DHT22;5396;50.950;6.988;2023-03-31T18:16:34;12.90;99.90
10692;DHT22;5396;50.950;6.988;2023-03-31T18:19:01;12.90;99.90
10692;DHT22;5396;50.950;6.988;2023-03-31T18:21:27;12.90;99.90
10692;DHT22;5396;50.950;6.988;2023-03-31T18:23:57;12.90;99.90
10692;DHT22;5396;50.950;6.988;2023-03-31T18:26:25;12.80;99.90
10692;DHT22;5396;50.950;6.988;2023-03-31T18:28:52;12.80;99.90
10692;DHT22;5396;50.950;6.988;2023-03-31T18:31:18;12.80;99.90
10692;DHT22;5396;50.950;6.988;2023-03-31T18:33:45;12.70;99.90
10692;DHT22;5396;50.950;6.988;2023-03-31T18:36:16;12.70;99.90